Scott City, Indiana
Current Conditions -  °F | °C
As of 6:53 PM on Sunday 23 Nov 2014 (Local Time) from KHUF Reporting Station
Moderate Rain Moderate Rain  
Wind Chill: 53°   Ceiling: 900
Heat Index: 53°   Visibility: 4mi
Dew Point: 51°   Wind: 9mph
Humidity: 93%   Direction: 130°SE
Pressure: 29.34"   Gusts: NA
Location:  39.2094°N, 87.3438°W
Report Text: KHUF 232353Z 13008KT 4SM RA BR OVC009 12/11 A2934 RMK AO2 CIG 006V011 SLP937 P0008 6//// T01170106 10117 20111 56049 $
Loading
Personal Weather Stations






























Interactive Weather Map New forecast layout! Learn more

10-Day Weather Forecast

Advertisements
Track Severe Weather on mobile